Share

Aleknagik, AK

Togiak (PATG) Elev 20 ft | 59.05 °N, 160.40 °W | Change Station

Current weather conditions updated 20 minutes ago

Overcast
Overcast
34 °F
Feels Like 34 °F
N
0
Wind Variable Wind from North
Sunrise 7:02 AM
Sunset 10:05 PM
Moon Waning Gibbous

Today is forecast to be Cooler than yesterday.

Pressure 29.78 in
Visibility 10.0 miles
Clouds Mostly Cloudy 6500 ft
Mostly Cloudy 7500 ft
Overcast 9000 ft
Dew Point 34 °F
Humidity 100%
Rainfall 0.00 in
Snow Depth Not available.
UV 0 out of 16
Pollen Not available.
Air Quality Not available.
Flu Activity Sporadic
METAR PATG 211636Z AUTO 00000KT 10SM BKN065 BKN075 OVC090 01/01 A2978 RMK AO1

More Conditions Fewer Conditions

Pressure 29.78 in
Visibility 10.0 miles
Clouds Mostly Cloudy 6500 ft
Mostly Cloudy 7500 ft
Overcast 9000 ft
Dew Point 34 °F
Humidity 100%
Rainfall 0.00 in
Snow Depth Not available.
UV 0 out of 16
Pollen Not available.
Air Quality Not available.
Flu Activity Sporadic
METAR PATG 211636Z AUTO 00000KT 10SM BKN065 BKN075 OVC090 01/01 A2978 RMK AO1

More Conditions Fewer Conditions

10-Day Weather Forecast

Almanac

Astronomy

Apr. 21, 2014 Rise Set
Actual Time 7:02 AM AKDT 10:05 PM AKDT
Civil Twilight 6:15 AM AKDT 10:53 PM AKDT
Nautical Twilight 5:10 AM AKDT 11:58 PM AKDT
Astronomical Twilight 3:24 AM AKDT 1:53 AM AKDT
Moon 4:03 AM AKDT 12:25 PM AKDT
Length of Visible Light 16h 37m
Length of Day
15h 03m
Tomorrow will be 5m 11s longer.
Waning Gibbous, 57% of the Moon is Illuminated
Today
Waning Gibbous
Apr 22
Last Quarter
Apr 29
New
May 6
First Quarter
May 14
Full

Today's Extremes

State Highs State Lows

Community

  • Glass on White Lake
    Glass on White Lake
  • Bright Eyes
    Bright Eyes
  • Snowy Robin
    Snowy Robin
  • Spring Crocus
    Spring Crocus
  • Sun Pillar and Geese
    Sun Pillar and Geese

WunderPhotos

Upload Photos

1,703,682 photos uploaded!

WunderBlogs® & News

Nearby

Snow Depth

Station Depth Elevation
Port Graham 6 in 300 ft
Mcneil Canyon 7 in 1320 ft
MF Bradley River 20 in 2300 ft
Nuka Glacier 31 in 1250 ft
Cooper Lake 20 in 1200 ft

Coastal Water Temperatures

Place Temperature
No Stations Reporting

Earthquake Activity

City Distance Mag. Time & Date
No recent earthquake activity has been reported nearby.
Minimum magnitude displayed is 2.5.

Nearby Weather Stations

Station Location Temp. Windchill Dew Point Humidity Wind Precip. Elev Updated Type
MesoWest WEARY LAKE , Manokotak, AK 36 °F 36 °F - - North  at  - 0.00 in / hr 100 ft 7:00 AM AKDT MADIS

Show More Stations Show Fewer Stations

What do you think?

We're not finished. Please let us know what you like, what you don't like, and what you are still missing.